createdAt,value
2019-04-23T00:00:07.330Z,101618.42
2019-04-23T00:02:44.469Z,101622.80
2019-04-23T00:05:22.348Z,101620.92
2019-04-23T00:12:59.268Z,101616.03
2019-04-23T00:15:54.623Z,101611.37
2019-04-23T00:18:28.282Z,101620.31
2019-04-23T00:20:57.206Z,101615.84
2019-04-23T00:23:32.793Z,101620.05
2019-04-23T00:28:35.613Z,101621.97
2019-04-23T00:31:15.467Z,101630.16
2019-04-23T00:33:40.905Z,101636.94
2019-04-23T00:36:22.284Z,101636.86
2019-04-23T00:41:25.273Z,101636.05
2019-04-23T00:46:34.978Z,101642.27
2019-04-23T00:51:42.581Z,101640.91
2019-04-23T00:54:12.218Z,101635.19
2019-04-23T00:57:09.019Z,101640.84
2019-04-23T00:59:26.850Z,101634.61
2019-04-23T01:01:57.523Z,101637.23
2019-04-23T01:04:31.663Z,101643.59
2019-04-23T01:07:04.287Z,101640.53
2019-04-23T01:09:45.838Z,101632.98
2019-04-23T01:12:15.967Z,101635.55
2019-04-23T01:14:48.725Z,101634.62
2019-04-23T01:17:30.209Z,101640.33
2019-04-23T01:19:54.769Z,101635.96
2019-04-23T01:22:12.536Z,101632.94
2019-04-23T01:25:09.763Z,101631.67
2019-04-23T01:28:02.142Z,101629.13
2019-04-23T01:30:38.726Z,101643.26
2019-04-23T01:33:10.974Z,101640.27
2019-04-23T01:35:50.880Z,101640.58
2019-04-23T01:38:21.910Z,101631.33
2019-04-23T01:40:40.813Z,101630.68
2019-04-23T01:43:23.189Z,101638.31
2019-04-23T01:45:54.411Z,101639.67
2019-04-23T01:48:34.236Z,101646.84
2019-04-23T01:53:40.477Z,101648.92
2019-04-23T01:56:11.435Z,101647.09
2019-04-23T01:58:45.115Z,101643.05
2019-04-23T02:01:21.131Z,101651.18
2019-04-23T02:03:57.992Z,101648.90
2019-04-23T02:06:25.222Z,101657.76
2019-04-23T02:09:01.498Z,101656.77
2019-04-23T02:11:34.172Z,101658.62
2019-04-23T02:14:09.464Z,101662.98
2019-04-23T02:16:55.132Z,101661.14
2019-04-23T02:19:19.953Z,101658.00
2019-04-23T02:22:05.079Z,101653.48
2019-04-23T02:24:43.025Z,101661.32
2019-04-23T02:27:16.977Z,101663.17
2019-04-23T02:30:15.641Z,101669.31
2019-04-23T02:32:42.134Z,101666.12
2019-04-23T02:35:09.533Z,101661.25
2019-04-23T02:37:49.266Z,101660.29
2019-04-23T02:40:26.686Z,101657.81
2019-04-23T02:45:16.926Z,101657.34
2019-04-23T02:47:52.987Z,101668.47
2019-04-23T02:55:43.228Z,101685.94
2019-04-23T02:58:19.134Z,101691.11
2019-04-23T03:03:25.212Z,101691.38
2019-04-23T03:05:49.319Z,101685.41
2019-04-23T03:11:07.748Z,101693.24
2019-04-23T03:13:48.427Z,101694.89
2019-04-23T03:16:15.577Z,101695.30
2019-04-23T03:18:51.638Z,101700.65
2019-04-23T03:21:34.902Z,101700.13
2019-04-23T03:24:13.448Z,101700.16
2019-04-23T03:26:49.328Z,101701.53
2019-04-23T03:29:21.858Z,101702.03
2019-04-23T03:39:44.256Z,101704.17
2019-04-23T03:44:53.394Z,101708.64
2019-04-23T03:47:18.736Z,101698.78
2019-04-23T03:49:48.615Z,101690.89
2019-04-23T04:02:49.032Z,101701.30
2019-04-23T04:05:20.559Z,101708.73
2019-04-23T04:10:16.568Z,101703.42
2019-04-23T04:15:43.603Z,101708.88
2019-04-23T04:18:11.687Z,101703.05
2019-04-23T04:23:16.914Z,101694.97
2019-04-23T04:33:49.070Z,101683.19
2019-04-23T04:36:13.275Z,101689.62
2019-04-23T04:44:14.923Z,101682.41
2019-04-23T04:46:28.126Z,101676.59
2019-04-23T04:48:58.864Z,101673.67
2019-04-23T04:56:42.667Z,101667.03
2019-04-23T04:59:09.256Z,101665.48
2019-04-23T05:01:39.592Z,101674.06
2019-04-23T05:04:20.186Z,101665.11
2019-04-23T05:06:56.583Z,101665.34
2019-04-23T05:09:19.465Z,101667.16
2019-04-23T05:17:13.553Z,101665.77
2019-04-23T05:19:45.797Z,101666.67
2019-04-23T05:22:17.101Z,101662.22
2019-04-23T05:24:46.496Z,101658.97
2019-04-23T05:27:17.887Z,101652.38
2019-04-23T05:30:00.978Z,101653.95
2019-04-23T05:32:30.013Z,101657.05
2019-04-23T05:35:07.886Z,101657.45
2019-04-23T05:37:50.564Z,101646.58
2019-04-23T05:40:25.450Z,101654.53
2019-04-23T05:42:49.761Z,101650.48
2019-04-23T05:45:21.618Z,101662.33
2019-04-23T05:47:59.429Z,101659.77
2019-04-23T05:50:35.437Z,101663.16
2019-04-23T05:53:07.881Z,101660.60
2019-04-23T05:55:42.646Z,101662.12
2019-04-23T05:58:23.202Z,101667.36
2019-04-23T06:01:08.628Z,101667.29
2019-04-23T06:03:49.130Z,101661.79
2019-04-23T06:06:08.211Z,101660.72
2019-04-23T06:08:44.085Z,101673.82
2019-04-23T06:11:19.148Z,101668.16
2019-04-23T06:13:56.177Z,101667.70
2019-04-23T06:16:32.736Z,101674.30
2019-04-23T06:19:02.711Z,101670.56
2019-04-23T06:21:44.869Z,101671.89
2019-04-23T06:24:17.001Z,101670.29
2019-04-23T06:26:49.343Z,101674.57
2019-04-23T06:34:31.275Z,101672.20
2019-04-23T06:36:58.942Z,101672.38
2019-04-23T06:39:42.842Z,101676.41
2019-04-23T06:42:14.128Z,101677.73
2019-04-23T06:44:52.070Z,101674.77
2019-04-23T06:47:29.811Z,101678.66
2019-04-23T06:49:58.127Z,101679.86
2019-04-23T06:52:25.439Z,101679.00
2019-04-23T06:57:41.129Z,101683.94
2019-04-23T07:02:56.589Z,101686.17
2019-04-23T07:05:39.439Z,101688.14
2019-04-23T07:08:12.307Z,101688.48
2019-04-23T07:10:40.350Z,101678.97
2019-04-23T07:13:21.182Z,101679.75
2019-04-23T07:15:57.092Z,101676.53
2019-04-23T07:18:24.309Z,101683.72
2019-04-23T07:21:09.842Z,101677.95
2019-04-23T07:26:15.559Z,101679.86
2019-04-23T07:28:49.982Z,101682.35
2019-04-23T07:36:35.548Z,101688.02
2019-04-23T07:41:48.219Z,101688.81
2019-04-23T07:49:48.864Z,101685.27
2019-04-23T07:52:25.711Z,101683.80
2019-04-23T07:55:02.404Z,101679.14
2019-04-23T07:57:24.080Z,101686.50
2019-04-23T08:00:02.595Z,101676.30
2019-04-23T08:02:38.054Z,101680.97
2019-04-23T08:05:15.600Z,101680.39
2019-04-23T08:07:44.190Z,101677.55
2019-04-23T08:10:15.311Z,101683.84
2019-04-23T08:12:53.848Z,101682.64
2019-04-23T08:15:32.746Z,101687.73
2019-04-23T08:17:59.027Z,101691.69
2019-04-23T08:20:35.342Z,101700.23
2019-04-23T08:23:08.839Z,101700.38
2019-04-23T08:25:54.183Z,101690.10
2019-04-23T08:28:37.132Z,101697.19
2019-04-23T08:30:56.804Z,101697.53
2019-04-23T08:33:36.481Z,101694.73
2019-04-23T08:36:09.423Z,101697.21
2019-04-23T08:38:57.529Z,101700.20
2019-04-23T08:44:11.304Z,101691.55
2019-04-23T08:49:29.028Z,101682.17
2019-04-23T08:57:18.678Z,101677.78
2019-04-23T08:59:44.069Z,101682.08
2019-04-23T09:04:54.240Z,101689.04
2019-04-23T09:07:26.544Z,101689.55
2019-04-23T09:09:56.958Z,101696.35
2019-04-23T09:12:30.060Z,101697.87
2019-04-23T09:15:13.474Z,101690.15
2019-04-23T09:17:42.927Z,101690.69
2019-04-23T09:25:28.409Z,101688.02
2019-04-23T09:27:56.386Z,101684.41
2019-04-23T09:30:30.076Z,101680.06
2019-04-23T09:33:11.798Z,101687.34
2019-04-23T09:35:42.723Z,101684.20
2019-04-23T09:43:55.633Z,101683.05
2019-04-23T09:49:05.875Z,101689.38
2019-04-23T09:51:35.851Z,101696.28
2019-04-23T09:54:12.825Z,101687.84
2019-04-23T09:56:41.467Z,101691.68
2019-04-23T10:01:41.322Z,101700.48
2019-04-23T10:04:09.665Z,101699.98
2019-04-23T10:06:36.471Z,101699.22
2019-04-23T10:09:09.708Z,101695.98
2019-04-23T10:11:38.983Z,101702.98
2019-04-23T10:14:10.668Z,101701.13
2019-04-23T10:16:43.377Z,101692.78
2019-04-23T10:19:16.800Z,101694.53
2019-04-23T10:21:49.298Z,101697.66
2019-04-23T10:24:21.227Z,101700.70
2019-04-23T10:26:52.946Z,101697.29
2019-04-23T10:29:27.846Z,101705.00
2019-04-23T10:31:59.849Z,101701.55
2019-04-23T10:34:42.988Z,101695.67
2019-04-23T10:37:05.312Z,101690.41
2019-04-23T10:39:41.270Z,101687.44
2019-04-23T10:42:12.102Z,101685.04
2019-04-23T10:44:50.808Z,101694.44
2019-04-23T10:48:23.094Z,101697.30
2019-04-23T10:58:31.829Z,101681.03
2019-04-23T11:01:04.593Z,101683.86
2019-04-23T11:03:48.600Z,101698.81
2019-04-23T11:06:21.385Z,101686.89
2019-04-23T11:08:40.506Z,101686.58
2019-04-23T11:11:25.518Z,101691.73
2019-04-23T11:19:10.706Z,101689.54
2019-04-23T11:24:20.529Z,101686.45
2019-04-23T11:29:25.744Z,101687.03
2019-04-23T11:31:58.206Z,101686.70
2019-04-23T11:34:50.384Z,101687.14
2019-04-23T11:37:06.184Z,101683.45
2019-04-23T11:39:45.095Z,101679.06
2019-04-23T11:42:26.115Z,101680.33
2019-04-23T11:44:49.977Z,101675.48
2019-04-23T11:48:00.426Z,101678.48
2019-04-23T11:49:55.182Z,101678.89
2019-04-23T11:52:35.590Z,101676.16
2019-04-23T11:55:00.961Z,101671.05
2019-04-23T11:57:41.141Z,101673.95
2019-04-23T12:02:49.985Z,101670.47
2019-04-23T12:05:26.901Z,101659.05
2019-04-23T12:08:07.340Z,101658.03
2019-04-23T12:10:47.344Z,101653.94
2019-04-23T12:13:20.497Z,101660.03
2019-04-23T12:18:48.328Z,101657.00
2019-04-23T12:20:57.362Z,101656.88
2019-04-23T12:26:20.494Z,101649.39
2019-04-23T12:31:28.401Z,101657.20
2019-04-23T12:33:57.533Z,101644.98
2019-04-23T12:36:46.910Z,101648.29
2019-04-23T12:39:16.347Z,101642.17
2019-04-23T12:41:45.254Z,101646.58
2019-04-23T12:44:17.951Z,101646.63
2019-04-23T12:46:54.251Z,101647.02
2019-04-23T12:49:50.521Z,101645.02
2019-04-23T12:52:12.163Z,101644.48
2019-04-23T12:55:02.838Z,101648.68
2019-04-23T12:57:18.551Z,101645.75
2019-04-23T12:59:50.262Z,101641.27
2019-04-23T13:02:32.779Z,101641.38
2019-04-23T13:07:43.285Z,101638.94
2019-04-23T13:12:43.030Z,101627.19
2019-04-23T13:17:50.245Z,101626.84
2019-04-23T13:20:23.472Z,101623.04
2019-04-23T13:23:03.094Z,101629.75
2019-04-23T13:25:48.068Z,101622.17
2019-04-23T13:28:23.650Z,101623.04
2019-04-23T13:33:35.212Z,101615.85
2019-04-23T13:38:40.507Z,101624.75
2019-04-23T13:41:17.353Z,101619.00
2019-04-23T13:48:47.154Z,101620.11
2019-04-23T13:51:30.636Z,101618.36
2019-04-23T13:54:01.713Z,101619.35
2019-04-23T13:56:53.876Z,101618.09
2019-04-23T13:59:26.387Z,101612.48
2019-04-23T14:02:03.560Z,101615.69
2019-04-23T14:09:45.793Z,101610.56
2019-04-23T14:12:10.080Z,101610.06
2019-04-23T14:20:04.172Z,101602.97
2019-04-23T14:22:56.595Z,101598.55
2019-04-23T14:25:05.782Z,101599.34
2019-04-23T14:27:51.861Z,101598.64
2019-04-23T14:30:24.206Z,101596.39
2019-04-23T14:33:12.064Z,101600.84
2019-04-23T14:35:25.462Z,101597.56
2019-04-23T14:38:12.924Z,101595.16
2019-04-23T14:40:39.508Z,101595.42
2019-04-23T14:43:09.029Z,101599.31
2019-04-23T14:48:19.715Z,101601.91
2019-04-23T14:51:02.359Z,101597.91
2019-04-23T14:53:40.973Z,101600.14
2019-04-23T14:56:09.740Z,101593.36
2019-04-23T14:58:51.290Z,101596.76
2019-04-23T15:01:27.419Z,101594.55
2019-04-23T15:03:56.037Z,101598.72
2019-04-23T15:06:37.960Z,101599.44
2019-04-23T15:11:40.935Z,101598.03
2019-04-23T15:14:08.854Z,101594.14
2019-04-23T15:16:46.870Z,101600.10
2019-04-23T15:19:31.631Z,101587.45
2019-04-23T15:22:04.616Z,101592.19
2019-04-23T15:24:27.835Z,101588.30
2019-04-23T15:29:28.099Z,101587.09
2019-04-23T15:32:34.917Z,101588.05
2019-04-23T15:34:47.243Z,101581.23
2019-04-23T15:37:41.409Z,101581.58
2019-04-23T15:40:01.051Z,101586.43
2019-04-23T15:42:53.812Z,101583.63
2019-04-23T15:47:44.397Z,101586.62
2019-04-23T15:54:24.964Z,101585.20
2019-04-23T15:56:55.269Z,101588.89
2019-04-23T15:59:34.949Z,101595.57
2019-04-23T16:01:42.639Z,101590.88
2019-04-23T16:04:15.334Z,101592.52
2019-04-23T16:06:49.790Z,101593.99
2019-04-23T16:10:03.192Z,101591.38
2019-04-23T16:12:27.775Z,101595.38
2019-04-23T16:15:07.794Z,101603.89
2019-04-23T16:17:37.302Z,101600.73
2019-04-23T16:22:44.378Z,101609.61
2019-04-23T16:25:17.203Z,101608.44
2019-04-23T16:28:00.389Z,101605.16
2019-04-23T16:30:31.099Z,101606.11
2019-04-23T16:33:11.152Z,101610.50
2019-04-23T16:36:00.026Z,101606.67
2019-04-23T16:41:03.911Z,101608.13
2019-04-23T16:43:40.894Z,101610.52
2019-04-23T16:49:02.794Z,101614.77
2019-04-23T16:51:27.869Z,101619.41
2019-04-23T16:54:01.749Z,101617.08
2019-04-23T16:59:16.378Z,101625.14
2019-04-23T17:01:44.562Z,101620.40
2019-04-23T17:06:58.267Z,101625.41
2019-04-23T17:09:38.048Z,101620.56
2019-04-23T17:12:10.887Z,101627.48
2019-04-23T17:14:41.627Z,101625.51
2019-04-23T17:17:07.857Z,101628.80
2019-04-23T17:19:52.123Z,101634.75
2019-04-23T17:22:17.963Z,101638.60
2019-04-23T17:25:07.414Z,101634.63
2019-04-23T17:30:13.163Z,101635.35
2019-04-23T17:32:45.242Z,101640.50
2019-04-23T17:35:24.717Z,101647.19
2019-04-23T17:38:10.751Z,101654.34
2019-04-23T17:40:54.060Z,101653.23
2019-04-23T17:43:25.947Z,101656.87
2019-04-23T17:45:52.201Z,101664.17
2019-04-23T17:48:43.829Z,101659.77
2019-04-23T17:51:11.382Z,101666.39
2019-04-23T17:53:52.414Z,101673.00
2019-04-23T17:56:29.387Z,101682.04
2019-04-23T17:59:00.552Z,101676.54
2019-04-23T18:01:27.872Z,101679.42
2019-04-23T18:04:14.009Z,101679.64
2019-04-23T18:06:41.337Z,101672.80
2019-04-23T18:09:21.480Z,101672.80
2019-04-23T18:12:12.738Z,101681.89
2019-04-23T18:14:18.283Z,101683.30
2019-04-23T18:17:24.205Z,101686.62
2019-04-23T18:19:30.003Z,101687.55
2019-04-23T18:22:32.643Z,101689.53
2019-04-23T18:25:18.050Z,101690.55
2019-04-23T18:27:50.955Z,101697.22
2019-04-23T18:30:49.633Z,101694.27
2019-04-23T18:33:43.740Z,101699.00
2019-04-23T18:35:34.012Z,101691.98
2019-04-23T18:38:18.547Z,101700.59
2019-04-23T18:41:05.240Z,101701.12
2019-04-23T18:51:05.188Z,101693.12
2019-04-23T18:53:51.913Z,101698.49
2019-04-23T18:56:51.722Z,101697.95
2019-04-23T18:59:10.998Z,101697.95
2019-04-23T19:01:34.145Z,101694.60
2019-04-23T19:04:19.668Z,101697.05
2019-04-23T19:06:40.022Z,101699.09
2019-04-23T19:09:24.810Z,101702.34
2019-04-23T19:17:43.028Z,101702.48
2019-04-23T19:19:55.243Z,101697.61
2019-04-23T19:22:28.812Z,101701.05
2019-04-23T19:25:01.952Z,101699.09
2019-04-23T19:33:14.470Z,101695.17
2019-04-23T19:43:32.834Z,101705.27
2019-04-23T19:46:09.370Z,101696.81
2019-04-23T19:48:48.560Z,101703.48
2019-04-23T19:51:17.129Z,101709.79
2019-04-23T19:54:06.092Z,101702.88
2019-04-23T20:01:37.664Z,101698.31
2019-04-23T20:04:04.429Z,101713.97
2019-04-23T20:07:06.116Z,101710.55
2019-04-23T20:09:44.106Z,101708.94
2019-04-23T20:12:01.017Z,101708.94
2019-04-23T20:14:34.589Z,101714.41
2019-04-23T20:17:23.371Z,101712.33
2019-04-23T20:19:52.904Z,101714.97
2019-04-23T20:22:16.367Z,101721.55
2019-04-23T20:27:18.357Z,101724.09
2019-04-23T20:30:37.628Z,101726.72
2019-04-23T20:35:35.560Z,101720.72
2019-04-23T20:38:25.721Z,101720.72
2019-04-23T20:40:48.555Z,101722.14
2019-04-23T20:43:14.790Z,101718.37
2019-04-23T20:45:58.944Z,101727.32
2019-04-23T20:48:41.423Z,101727.32
2019-04-23T20:50:56.446Z,101726.75
2019-04-23T20:53:40.356Z,101729.20
2019-04-23T20:56:17.613Z,101728.89
2019-04-23T20:59:00.199Z,101730.86
2019-04-23T21:01:36.921Z,101738.97
2019-04-23T21:04:00.476Z,101736.80
2019-04-23T21:06:48.798Z,101737.86
2019-04-23T21:10:00.906Z,101736.02
2019-04-23T21:14:39.765Z,101738.14
2019-04-23T21:16:56.042Z,101743.31
2019-04-23T21:19:42.078Z,101739.17
2019-04-23T21:22:13.587Z,101741.71
2019-04-23T21:24:53.823Z,101744.98
2019-04-23T21:27:27.821Z,101744.44
2019-04-23T21:30:00.598Z,101742.48
2019-04-23T21:32:52.672Z,101745.27
2019-04-23T21:35:10.586Z,101747.52
2019-04-23T21:37:49.443Z,101744.66
2019-04-23T21:43:09.499Z,101747.59
2019-04-23T21:45:40.757Z,101749.08
2019-04-23T21:53:17.991Z,101750.62
2019-04-23T21:56:08.925Z,101749.81
2019-04-23T21:58:36.787Z,101745.98
2019-04-23T22:01:13.125Z,101752.11
2019-04-23T22:03:52.921Z,101747.06
2019-04-23T22:06:22.235Z,101743.88
2019-04-23T22:11:48.441Z,101749.38
2019-04-23T22:14:07.510Z,101752.45
2019-04-23T22:16:41.067Z,101755.47
2019-04-23T22:24:12.274Z,101755.70
2019-04-23T22:29:28.127Z,101754.69
2019-04-23T22:31:51.159Z,101751.30
2019-04-23T22:34:33.951Z,101753.25
2019-04-23T22:39:39.932Z,101761.01
2019-04-23T22:47:13.339Z,101786.36
2019-04-23T22:50:07.492Z,101782.47
2019-04-23T22:55:07.368Z,101779.84
2019-04-23T23:13:32.976Z,101782.48
2019-04-23T23:16:01.556Z,101781.51
2019-04-23T23:21:16.399Z,101781.40
2019-04-23T23:23:40.778Z,101779.73
2019-04-23T23:26:24.243Z,101783.03
2019-04-23T23:28:44.586Z,101780.52
2019-04-23T23:31:17.343Z,101779.70
2019-04-23T23:34:04.382Z,101779.36
2019-04-23T23:36:42.452Z,101781.23
2019-04-23T23:41:43.945Z,101791.34
2019-04-23T23:46:56.524Z,101794.39
2019-04-23T23:52:02.944Z,101800.95
2019-04-23T23:54:21.558Z,101794.23
2019-04-23T23:57:07.012Z,101790.34
